sensor_id;sensor_type;location;lat;lon;timestamp;pressure;altitude;pressure_sealevel;temperature;humidity
4346;BME280;2186;49.866;7.986;2024-02-15T00:02:22;100621.84;;;12.19;100.00
4346;BME280;2186;49.866;7.986;2024-02-15T00:04:49;100615.28;;;12.30;100.00
4346;BME280;2186;49.866;7.986;2024-02-15T00:07:16;100617.50;;;12.16;100.00
4346;BME280;2186;49.866;7.986;2024-02-15T00:09:42;100612.22;;;12.14;100.00
4346;BME280;2186;49.866;7.986;2024-02-15T00:12:09;100614.94;;;12.13;100.00
4346;BME280;2186;49.866;7.986;2024-02-15T00:14:36;100610.06;;;11.98;100.00
4346;BME280;2186;49.866;7.986;2024-02-15T00:17:04;100613.53;;;12.00;100.00
4346;BME280;2186;49.866;7.986;2024-02-15T00:19:31;100610.16;;;11.95;100.00
4346;BME280;2186;49.866;7.986;2024-02-15T00:21:58;100613.69;;;11.95;100.00
4346;BME280;2186;49.866;7.986;2024-02-15T00:24:24;100610.09;;;11.64;100.00
4346;BME280;2186;49.866;7.986;2024-02-15T00:26:51;100622.59;;;11.62;100.00
4346;BME280;2186;49.866;7.986;2024-02-15T00:29:20;100624.38;;;11.61;100.00
4346;BME280;2186;49.866;7.986;2024-02-15T00:31:46;100613.03;;;11.54;100.00
4346;BME280;2186;49.866;7.986;2024-02-15T00:34:13;100615.38;;;11.67;100.00
4346;BME280;2186;49.866;7.986;2024-02-15T00:36:43;100621.50;;;11.69;100.00
4346;BME280;2186;49.866;7.986;2024-02-15T00:39:12;100616.09;;;11.72;100.00
4346;BME280;2186;49.866;7.986;2024-02-15T00:41:40;100624.41;;;11.60;100.00
4346;BME280;2186;49.866;7.986;2024-02-15T00:44:09;100611.94;;;11.62;100.00
4346;BME280;2186;49.866;7.986;2024-02-15T00:46:39;100616.56;;;11.55;100.00
4346;BME280;2186;49.866;7.986;2024-02-15T00:49:07;100621.97;;;11.52;100.00
4346;BME280;2186;49.866;7.986;2024-02-15T00:51:35;100620.78;;;11.62;100.00
4346;BME280;2186;49.866;7.986;2024-02-15T00:54:02;100623.78;;;11.50;100.00
4346;BME280;2186;49.866;7.986;2024-02-15T00:56:29;100626.53;;;11.47;100.00
4346;BME280;2186;49.866;7.986;2024-02-15T00:59:00;100623.22;;;11.37;100.00
4346;BME280;2186;49.866;7.986;2024-02-15T01:01:27;100623.03;;;11.45;100.00
4346;BME280;2186;49.866;7.986;2024-02-15T01:03:54;100619.44;;;11.47;100.00
4346;BME280;2186;49.866;7.986;2024-02-15T01:06:21;100618.47;;;11.50;100.00
4346;BME280;2186;49.866;7.986;2024-02-15T01:08:48;100616.38;;;11.28;100.00
4346;BME280;2186;49.866;7.986;2024-02-15T01:11:15;100614.44;;;11.35;100.00
4346;BME280;2186;49.866;7.986;2024-02-15T01:13:42;100618.09;;;11.31;100.00
4346;BME280;2186;49.866;7.986;2024-02-15T01:16:08;100612.09;;;11.23;100.00
4346;BME280;2186;49.866;7.986;2024-02-15T01:18:35;100612.78;;;11.31;100.00
4346;BME280;2186;49.866;7.986;2024-02-15T01:21:02;100613.63;;;11.32;100.00
4346;BME280;2186;49.866;7.986;2024-02-15T01:23:29;100614.56;;;11.31;100.00
4346;BME280;2186;49.866;7.986;2024-02-15T01:25:55;100613.81;;;11.25;100.00
4346;BME280;2186;49.866;7.986;2024-02-15T01:28:21;100623.94;;;11.10;100.00
4346;BME280;2186;49.866;7.986;2024-02-15T01:30:48;100619.09;;;11.27;100.00
4346;BME280;2186;49.866;7.986;2024-02-15T01:33:15;100617.41;;;11.23;100.00
4346;BME280;2186;49.866;7.986;2024-02-15T01:35:42;100615.53;;;11.28;100.00
4346;BME280;2186;49.866;7.986;2024-02-15T01:38:08;100612.53;;;11.40;100.00
4346;BME280;2186;49.866;7.986;2024-02-15T01:40:35;100606.22;;;11.44;100.00
4346;BME280;2186;49.866;7.986;2024-02-15T01:43:01;100607.31;;;11.36;100.00
4346;BME280;2186;49.866;7.986;2024-02-15T01:45:28;100604.09;;;11.23;100.00
4346;BME280;2186;49.866;7.986;2024-02-15T01:47:55;100606.41;;;11.03;100.00
4346;BME280;2186;49.866;7.986;2024-02-15T01:50:23;100610.81;;;11.04;100.00
4346;BME280;2186;49.866;7.986;2024-02-15T01:52:52;100617.06;;;11.03;100.00
4346;BME280;2186;49.866;7.986;2024-02-15T01:55:21;100622.56;;;10.95;100.00
4346;BME280;2186;49.866;7.986;2024-02-15T01:57:48;100614.63;;;10.93;100.00
4346;BME280;2186;49.866;7.986;2024-02-15T02:00:17;100611.97;;;10.93;100.00
4346;BME280;2186;49.866;7.986;2024-02-15T02:02:45;100613.25;;;11.13;100.00
4346;BME280;2186;49.866;7.986;2024-02-15T02:05:12;100612.78;;;10.95;100.00
4346;BME280;2186;49.866;7.986;2024-02-15T02:07:39;100608.06;;;11.07;100.00
4346;BME280;2186;49.866;7.986;2024-02-15T02:10:07;100605.13;;;10.83;100.00
4346;BME280;2186;49.866;7.986;2024-02-15T02:12:34;100618.47;;;10.80;100.00
4346;BME280;2186;49.866;7.986;2024-02-15T02:15:00;100619.69;;;10.67;100.00
4346;BME280;2186;49.866;7.986;2024-02-15T02:17:27;100602.88;;;10.66;100.00
4346;BME280;2186;49.866;7.986;2024-02-15T02:19:53;100603.47;;;10.42;100.00
4346;BME280;2186;49.866;7.986;2024-02-15T02:22:21;100605.13;;;10.46;100.00
4346;BME280;2186;49.866;7.986;2024-02-15T02:24:58;100597.84;;;10.54;100.00
4346;BME280;2186;49.866;7.986;2024-02-15T02:27:27;100596.84;;;10.60;100.00
4346;BME280;2186;49.866;7.986;2024-02-15T02:29:54;100598.75;;;10.53;100.00
4346;BME280;2186;49.866;7.986;2024-02-15T02:32:21;100600.72;;;10.45;100.00
4346;BME280;2186;49.866;7.986;2024-02-15T02:34:48;100596.41;;;10.39;100.00
4346;BME280;2186;49.866;7.986;2024-02-15T02:37:14;100590.34;;;10.34;100.00
4346;BME280;2186;49.866;7.986;2024-02-15T02:39:41;100592.13;;;10.34;100.00
4346;BME280;2186;49.866;7.986;2024-02-15T02:42:09;100592.19;;;10.31;100.00
4346;BME280;2186;49.866;7.986;2024-02-15T02:44:36;100587.09;;;10.22;100.00
4346;BME280;2186;49.866;7.986;2024-02-15T02:47:02;100589.75;;;10.20;100.00
4346;BME280;2186;49.866;7.986;2024-02-15T02:49:29;100583.59;;;10.18;100.00
4346;BME280;2186;49.866;7.986;2024-02-15T02:51:55;100583.44;;;10.26;100.00
4346;BME280;2186;49.866;7.986;2024-02-15T02:54:22;100594.47;;;10.06;100.00
4346;BME280;2186;49.866;7.986;2024-02-15T02:56:48;100599.72;;;10.09;100.00
4346;BME280;2186;49.866;7.986;2024-02-15T02:59:15;100594.53;;;10.04;100.00
4346;BME280;2186;49.866;7.986;2024-02-15T03:01:42;100596.25;;;10.05;100.00
4346;BME280;2186;49.866;7.986;2024-02-15T03:04:09;100591.75;;;10.09;100.00
4346;BME280;2186;49.866;7.986;2024-02-15T03:06:38;100589.97;;;10.09;100.00
4346;BME280;2186;49.866;7.986;2024-02-15T03:09:08;100588.94;;;10.17;100.00
4346;BME280;2186;49.866;7.986;2024-02-15T03:11:36;100589.78;;;10.19;100.00
4346;BME280;2186;49.866;7.986;2024-02-15T03:14:02;100587.84;;;10.27;100.00
4346;BME280;2186;49.866;7.986;2024-02-15T03:16:33;100589.63;;;10.26;100.00
4346;BME280;2186;49.866;7.986;2024-02-15T03:19:04;100594.94;;;10.26;100.00
4346;BME280;2186;49.866;7.986;2024-02-15T03:21:31;100597.78;;;10.17;100.00
4346;BME280;2186;49.866;7.986;2024-02-15T03:23:57;100594.19;;;10.21;100.00
4346;BME280;2186;49.866;7.986;2024-02-15T03:26:31;100585.91;;;10.35;100.00
4346;BME280;2186;49.866;7.986;2024-02-15T03:29:04;100595.53;;;10.39;100.00
4346;BME280;2186;49.866;7.986;2024-02-15T03:31:31;100586.53;;;10.46;100.00
4346;BME280;2186;49.866;7.986;2024-02-15T03:33:58;100587.59;;;10.37;100.00
4346;BME280;2186;49.866;7.986;2024-02-15T03:36:25;100584.09;;;10.35;100.00
4346;BME280;2186;49.866;7.986;2024-02-15T03:38:52;100583.78;;;10.49;100.00
4346;BME280;2186;49.866;7.986;2024-02-15T03:41:20;100569.13;;;10.33;100.00
4346;BME280;2186;49.866;7.986;2024-02-15T03:43:47;100580.59;;;10.35;100.00
4346;BME280;2186;49.866;7.986;2024-02-15T03:46:13;100578.75;;;10.37;100.00
4346;BME280;2186;49.866;7.986;2024-02-15T03:48:43;100578.69;;;10.42;100.00
4346;BME280;2186;49.866;7.986;2024-02-15T03:51:10;100574.16;;;10.45;100.00
4346;BME280;2186;49.866;7.986;2024-02-15T03:53:37;100580.38;;;10.44;100.00
4346;BME280;2186;49.866;7.986;2024-02-15T03:56:04;100586.66;;;10.42;100.00
4346;BME280;2186;49.866;7.986;2024-02-15T03:58:30;100583.06;;;10.43;100.00
4346;BME280;2186;49.866;7.986;2024-02-15T04:00:59;100584.00;;;10.42;100.00
4346;BME280;2186;49.866;7.986;2024-02-15T04:03:26;100585.78;;;10.39;100.00
4346;BME280;2186;49.866;7.986;2024-02-15T04:05:52;100582.16;;;10.44;100.00
4346;BME280;2186;49.866;7.986;2024-02-15T04:08:19;100587.53;;;10.42;100.00
4346;BME280;2186;49.866;7.986;2024-02-15T04:10:45;100584.81;;;10.44;100.00
4346;BME280;2186;49.866;7.986;2024-02-15T04:13:15;100581.50;;;10.34;100.00
4346;BME280;2186;49.866;7.986;2024-02-15T04:15:41;100587.53;;;10.41;100.00
4346;BME280;2186;49.866;7.986;2024-02-15T04:18:10;100587.53;;;10.41;100.00
4346;BME280;2186;49.866;7.986;2024-02-15T04:20:37;100584.06;;;10.37;100.00
4346;BME280;2186;49.866;7.986;2024-02-15T04:23:03;100593.66;;;10.44;100.00
4346;BME280;2186;49.866;7.986;2024-02-15T04:25:31;100589.31;;;10.40;100.00
4346;BME280;2186;49.866;7.986;2024-02-15T04:27:57;100583.19;;;10.36;100.00
4346;BME280;2186;49.866;7.986;2024-02-15T04:30:25;100584.81;;;10.44;100.00
4346;BME280;2186;49.866;7.986;2024-02-15T04:32:52;100585.50;;;10.52;100.00
4346;BME280;2186;49.866;7.986;2024-02-15T04:35:19;100576.56;;;10.56;100.00
4346;BME280;2186;49.866;7.986;2024-02-15T04:37:45;100576.31;;;10.65;100.00
4346;BME280;2186;49.866;7.986;2024-02-15T04:40:13;100586.78;;;10.73;100.00
4346;BME280;2186;49.866;7.986;2024-02-15T04:42:40;100583.16;;;10.75;100.00
4346;BME280;2186;49.866;7.986;2024-02-15T04:45:08;100578.91;;;10.68;100.00
4346;BME280;2186;49.866;7.986;2024-02-15T04:47:36;100572.56;;;10.74;100.00
4346;BME280;2186;49.866;7.986;2024-02-15T04:50:03;100567.88;;;10.85;100.00
4346;BME280;2186;49.866;7.986;2024-02-15T04:52:32;100562.41;;;10.89;100.00
4346;BME280;2186;49.866;7.986;2024-02-15T04:54:59;100562.28;;;10.94;100.00
4346;BME280;2186;49.866;7.986;2024-02-15T04:57:26;100563.34;;;10.88;100.00
4346;BME280;2186;49.866;7.986;2024-02-15T04:59:54;100567.63;;;10.94;100.00
4346;BME280;2186;49.866;7.986;2024-02-15T05:02:21;100569.41;;;10.93;100.00
4346;BME280;2186;49.866;7.986;2024-02-15T05:04:51;100577.16;;;11.03;100.00
4346;BME280;2186;49.866;7.986;2024-02-15T05:07:23;100564.63;;;11.06;100.00
4346;BME280;2186;49.866;7.986;2024-02-15T05:09:49;100571.75;;;11.06;100.00
4346;BME280;2186;49.866;7.986;2024-02-15T05:12:22;100558.44;;;11.06;100.00
4346;BME280;2186;49.866;7.986;2024-02-15T05:14:52;100563.34;;;11.21;100.00
4346;BME280;2186;49.866;7.986;2024-02-15T05:17:20;100559.72;;;11.25;100.00
4346;BME280;2186;49.866;7.986;2024-02-15T05:19:49;100551.75;;;11.25;100.00
4346;BME280;2186;49.866;7.986;2024-02-15T05:22:16;100559.63;;;11.28;100.00
4346;BME280;2186;49.866;7.986;2024-02-15T05:24:42;100560.09;;;11.10;100.00
4346;BME280;2186;49.866;7.986;2024-02-15T05:27:08;100562.47;;;11.20;100.00
4346;BME280;2186;49.866;7.986;2024-02-15T05:29:35;100564.19;;;11.23;100.00
4346;BME280;2186;49.866;7.986;2024-02-15T05:32:02;100563.34;;;11.21;100.00
4346;BME280;2186;49.866;7.986;2024-02-15T05:34:29;100562.75;;;11.10;100.00
4346;BME280;2186;49.866;7.986;2024-02-15T05:36:56;100565.97;;;11.22;100.00
4346;BME280;2186;49.866;7.986;2024-02-15T05:39:23;100573.84;;;11.27;100.00
4346;BME280;2186;49.866;7.986;2024-02-15T05:41:49;100572.16;;;11.24;100.00
4346;BME280;2186;49.866;7.986;2024-02-15T05:44:16;100569.41;;;11.27;100.00
4346;BME280;2186;49.866;7.986;2024-02-15T05:46:46;100565.66;;;11.35;100.00
4346;BME280;2186;49.866;7.986;2024-02-15T05:49:13;100567.25;;;11.42;100.00
4346;BME280;2186;49.866;7.986;2024-02-15T05:51:43;100563.81;;;11.38;100.00
4346;BME280;2186;49.866;7.986;2024-02-15T05:54:11;100565.53;;;11.39;100.00
4346;BME280;2186;49.866;7.986;2024-02-15T05:56:38;100563.84;;;11.35;100.00
4346;BME280;2186;49.866;7.986;2024-02-15T05:59:04;100561.63;;;11.20;100.00
4346;BME280;2186;49.866;7.986;2024-02-15T06:01:37;100559.03;;;11.17;100.00
4346;BME280;2186;49.866;7.986;2024-02-15T06:04:05;100561.63;;;11.20;100.00
4346;BME280;2186;49.866;7.986;2024-02-15T06:06:35;100559.13;;;11.14;100.00
4346;BME280;2186;49.866;7.986;2024-02-15T06:09:01;100551.25;;;11.11;100.00
4346;BME280;2186;49.866;7.986;2024-02-15T06:11:29;100538.59;;;11.19;100.00
4346;BME280;2186;49.866;7.986;2024-02-15T06:13:55;100546.69;;;11.14;100.00
4346;BME280;2186;49.866;7.986;2024-02-15T06:16:22;100534.13;;;11.19;100.00
4346;BME280;2186;49.866;7.986;2024-02-15T06:18:48;100529.88;;;11.14;100.00
4346;BME280;2186;49.866;7.986;2024-02-15T06:21:15;100532.84;;;11.02;100.00
4346;BME280;2186;49.866;7.986;2024-02-15T06:23:42;100538.16;;;11.02;100.00
4346;BME280;2186;49.866;7.986;2024-02-15T06:26:09;100525.69;;;11.04;100.00
4346;BME280;2186;49.866;7.986;2024-02-15T06:28:36;100533.28;;;10.85;100.00
4346;BME280;2186;49.866;7.986;2024-02-15T06:31:20;100522.63;;;10.86;100.00
4346;BME280;2186;49.866;7.986;2024-02-15T06:34:05;100530.69;;;10.83;100.00
4346;BME280;2186;49.866;7.986;2024-02-15T06:36:53;100529.47;;;10.61;100.00
4346;BME280;2186;49.866;7.986;2024-02-15T06:39:38;100534.81;;;10.59;100.00
4346;BME280;2186;49.866;7.986;2024-02-15T06:42:08;100534.56;;;10.68;100.00
4346;BME280;2186;49.866;7.986;2024-02-15T06:44:35;100539.06;;;10.66;100.00
4346;BME280;2186;49.866;7.986;2024-02-15T06:47:02;100541.47;;;10.77;100.00
4346;BME280;2186;49.866;7.986;2024-02-15T06:49:28;100543.47;;;10.69;100.00
4346;BME280;2186;49.866;7.986;2024-02-15T06:51:55;100542.84;;;10.58;100.00
4346;BME280;2186;49.866;7.986;2024-02-15T06:54:22;100549.28;;;10.48;100.00
4346;BME280;2186;49.866;7.986;2024-02-15T06:56:50;100547.69;;;10.39;100.00
4346;BME280;2186;49.866;7.986;2024-02-15T06:59:18;100544.28;;;10.34;100.00
4346;BME280;2186;49.866;7.986;2024-02-15T07:01:45;100552.22;;;10.35;100.00
4346;BME280;2186;49.866;7.986;2024-02-15T07:04:12;100559.25;;;10.38;100.00
4346;BME280;2186;49.866;7.986;2024-02-15T07:06:39;100553.13;;;10.34;100.00
4346;BME280;2186;49.866;7.986;2024-02-15T07:09:07;100559.44;;;10.30;100.00
4346;BME280;2186;49.866;7.986;2024-02-15T07:11:33;100554.91;;;10.34;100.00
4346;BME280;2186;49.866;7.986;2024-02-15T07:14:03;100558.38;;;10.37;100.00
4346;BME280;2186;49.866;7.986;2024-02-15T07:16:33;100562.69;;;10.43;100.00
4346;BME280;2186;49.866;7.986;2024-02-15T07:19:00;100569.13;;;10.33;100.00
4346;BME280;2186;49.866;7.986;2024-02-15T07:21:27;100562.88;;;10.34;100.00
4346;BME280;2186;49.866;7.986;2024-02-15T07:23:55;100561.88;;;10.39;100.00
4346;BME280;2186;49.866;7.986;2024-02-15T07:26:25;100556.41;;;10.46;100.00
4346;BME280;2186;49.866;7.986;2024-02-15T07:28:53;100571.53;;;10.44;100.00
4346;BME280;2186;49.866;7.986;2024-02-15T07:31:20;100576.66;;;10.51;100.00
4346;BME280;2186;49.866;7.986;2024-02-15T07:33:48;100570.38;;;10.54;100.00
4346;BME280;2186;49.866;7.986;2024-02-15T07:36:19;100568.34;;;10.65;100.00
4346;BME280;2186;49.866;7.986;2024-02-15T07:38:48;100574.69;;;10.59;100.00
4346;BME280;2186;49.866;7.986;2024-02-15T07:41:17;100575.53;;;10.61;100.00
4346;BME280;2186;49.866;7.986;2024-02-15T07:43:44;100578.06;;;10.66;100.00
4346;BME280;2186;49.866;7.986;2024-02-15T07:46:14;100576.19;;;10.71;100.00
4346;BME280;2186;49.866;7.986;2024-02-15T07:48:43;100576.94;;;10.76;100.00
4346;BME280;2186;49.866;7.986;2024-02-15T07:51:13;100583.25;;;10.72;100.00
4346;BME280;2186;49.866;7.986;2024-02-15T07:53:42;100589.53;;;10.70;100.00
4346;BME280;2186;49.866;7.986;2024-02-15T07:56:10;100592.81;;;10.79;100.00
4346;BME280;2186;49.866;7.986;2024-02-15T07:58:40;100593.81;;;10.75;100.00
4346;BME280;2186;49.866;7.986;2024-02-15T08:01:19;100591.09;;;10.77;100.00
4346;BME280;2186;49.866;7.986;2024-02-15T08:03:51;100593.19;;;10.64;100.00
4346;BME280;2186;49.866;7.986;2024-02-15T08:06:19;100589.31;;;10.77;100.00
4346;BME280;2186;49.866;7.986;2024-02-15T08:08:46;100590.22;;;10.76;100.00
4346;BME280;2186;49.866;7.986;2024-02-15T08:11:14;100582.75;;;10.92;100.00
4346;BME280;2186;49.866;7.986;2024-02-15T08:13:49;100592.63;;;10.87;100.00
4346;BME280;2186;49.866;7.986;2024-02-15T08:16:18;100580.84;;;10.97;100.00
4346;BME280;2186;49.866;7.986;2024-02-15T08:18:45;100585.19;;;11.01;100.00
4346;BME280;2186;49.866;7.986;2024-02-15T08:21:13;100584.03;;;11.10;100.00
4346;BME280;2186;49.866;7.986;2024-02-15T08:23:40;100583.03;;;11.15;100.00
4346;BME280;2186;49.866;7.986;2024-02-15T08:26:07;100586.38;;;11.22;100.00
4346;BME280;2186;49.866;7.986;2024-02-15T08:28:33;100579.19;;;11.27;100.00
4346;BME280;2186;49.866;7.986;2024-02-15T08:31:00;100580.88;;;11.30;100.00
4346;BME280;2186;49.866;7.986;2024-02-15T08:33:27;100576.38;;;11.32;100.00
4346;BME280;2186;49.866;7.986;2024-02-15T08:35:55;100581.63;;;11.35;100.00
4346;BME280;2186;49.866;7.986;2024-02-15T08:38:22;100572.19;;;11.55;100.00
4346;BME280;2186;49.866;7.986;2024-02-15T08:40:49;100579.88;;;11.65;100.00
4346;BME280;2186;49.866;7.986;2024-02-15T08:43:16;100583.38;;;11.68;100.00
4346;BME280;2186;49.866;7.986;2024-02-15T08:45:43;100582.41;;;11.71;100.00
4346;BME280;2186;49.866;7.986;2024-02-15T08:48:10;100570.66;;;11.79;100.00
4346;BME280;2186;49.866;7.986;2024-02-15T08:50:38;100574.03;;;11.84;100.00
4346;BME280;2186;49.866;7.986;2024-02-15T08:53:04;100571.53;;;11.80;100.00
4346;BME280;2186;49.866;7.986;2024-02-15T08:55:32;100571.59;;;11.75;100.00
4346;BME280;2186;49.866;7.986;2024-02-15T08:58:02;100566.16;;;11.81;100.00
4346;BME280;2186;49.866;7.986;2024-02-15T09:00:29;100566.00;;;11.86;100.00
4346;BME280;2186;49.866;7.986;2024-02-15T09:02:56;100572.91;;;11.93;100.00
4346;BME280;2186;49.866;7.986;2024-02-15T09:05:23;100568.47;;;11.92;100.00
4346;BME280;2186;49.866;7.986;2024-02-15T09:07:50;100559.13;;;12.08;100.00
4346;BME280;2186;49.866;7.986;2024-02-15T09:10:17;100564.47;;;12.08;100.00
4346;BME280;2186;49.866;7.986;2024-02-15T09:12:45;100568.72;;;12.14;100.00
4346;BME280;2186;49.866;7.986;2024-02-15T09:15:14;100567.75;;;12.16;100.00
4346;BME280;2186;49.866;7.986;2024-02-15T09:17:41;100563.16;;;12.22;100.00
4346;BME280;2186;49.866;7.986;2024-02-15T09:20:10;100561.84;;;12.35;100.00
4346;BME280;2186;49.866;7.986;2024-02-15T09:22:49;100560.13;;;12.34;100.00
4346;BME280;2186;49.866;7.986;2024-02-15T09:25:19;100558.22;;;12.37;100.00
4346;BME280;2186;49.866;7.986;2024-02-15T09:27:46;100550.78;;;12.47;100.00
4346;BME280;2186;49.866;7.986;2024-02-15T09:30:13;100556.09;;;12.49;100.00
4346;BME280;2186;49.866;7.986;2024-02-15T09:32:40;100554.78;;;12.60;100.00
4346;BME280;2186;49.866;7.986;2024-02-15T09:35:08;100548.47;;;12.64;100.00
4346;BME280;2186;49.866;7.986;2024-02-15T09:37:35;100551.66;;;12.74;100.00
4346;BME280;2186;49.866;7.986;2024-02-15T09:40:03;100548.34;;;12.94;100.00
4346;BME280;2186;49.866;7.986;2024-02-15T09:42:33;100548.84;;;13.05;100.00
4346;BME280;2186;49.866;7.986;2024-02-15T09:45:01;100546.38;;;13.25;100.00
4346;BME280;2186;49.866;7.986;2024-02-15T09:47:34;100538.13;;;13.33;100.00
4346;BME280;2186;49.866;7.986;2024-02-15T09:50:05;100532.84;;;13.31;100.00
4346;BME280;2186;49.866;7.986;2024-02-15T09:52:33;100539.59;;;13.15;100.00
4346;BME280;2186;49.866;7.986;2024-02-15T09:55:03;100528.84;;;13.43;100.00
4346;BME280;2186;49.866;7.986;2024-02-15T09:57:30;100530.34;;;13.50;100.00
4346;BME280;2186;49.866;7.986;2024-02-15T09:59:59;100527.63;;;13.52;100.00
4346;BME280;2186;49.866;7.986;2024-02-15T10:02:26;100518.50;;;13.34;100.00
4346;BME280;2186;49.866;7.986;2024-02-15T10:04:53;100521.94;;;13.61;100.00
4346;BME280;2186;49.866;7.986;2024-02-15T10:07:25;100535.00;;;13.69;100.00
4346;BME280;2186;49.866;7.986;2024-02-15T10:09:54;100527.06;;;13.90;100.00
4346;BME280;2186;49.866;7.986;2024-02-15T10:12:36;100517.03;;;13.74;100.00
4346;BME280;2186;49.866;7.986;2024-02-15T10:15:04;100522.88;;;13.83;99.54
4346;BME280;2186;49.866;7.986;2024-02-15T10:17:33;100518.84;;;13.95;99.79
4346;BME280;2186;49.866;7.986;2024-02-15T10:20:06;100518.91;;;13.93;100.00
4346;BME280;2186;49.866;7.986;2024-02-15T10:22:32;100515.34;;;13.71;100.00
4346;BME280;2186;49.866;7.986;2024-02-15T10:25:14;100517.28;;;14.13;99.51
4346;BME280;2186;49.866;7.986;2024-02-15T10:27:45;100509.53;;;14.50;98.06
4346;BME280;2186;49.866;7.986;2024-02-15T10:30:15;100511.22;;;14.53;97.55
4346;BME280;2186;49.866;7.986;2024-02-15T10:32:43;100501.91;;;14.18;98.65
4346;BME280;2186;49.866;7.986;2024-02-15T10:35:10;100500.16;;;14.39;97.24
4346;BME280;2186;49.866;7.986;2024-02-15T10:37:41;100492.59;;;14.50;97.47
4346;BME280;2186;49.866;7.986;2024-02-15T10:40:08;100497.38;;;14.64;97.08
4346;BME280;2186;49.866;7.986;2024-02-15T10:42:40;100494.84;;;14.61;98.17
4346;BME280;2186;49.866;7.986;2024-02-15T10:45:09;100494.25;;;14.54;97.97
4346;BME280;2186;49.866;7.986;2024-02-15T10:47:38;100492.94;;;14.85;96.85
4346;BME280;2186;49.866;7.986;2024-02-15T10:50:06;100484.38;;;14.97;95.81
4346;BME280;2186;49.866;7.986;2024-02-15T10:52:37;100483.63;;;14.73;95.18
4346;BME280;2186;49.866;7.986;2024-02-15T10:55:09;100483.84;;;14.46;95.16
4346;BME280;2186;49.866;7.986;2024-02-15T10:57:45;100484.19;;;14.81;94.52
4346;BME280;2186;49.866;7.986;2024-02-15T11:00:14;100480.03;;;14.94;93.40
4346;BME280;2186;49.866;7.986;2024-02-15T11:03:00;100474.56;;;14.97;91.99
4346;BME280;2186;49.866;7.986;2024-02-15T11:05:33;100466.66;;;14.94;92.80
4346;BME280;2186;49.866;7.986;2024-02-15T11:08:05;100471.34;;;15.09;93.02
4346;BME280;2186;49.866;7.986;2024-02-15T11:10:34;100463.75;;;15.19;91.88
4346;BME280;2186;49.866;7.986;2024-02-15T11:13:02;100461.56;;;15.08;91.38
4346;BME280;2186;49.866;7.986;2024-02-15T11:18:02;100462.09;;;14.96;94.08
4346;BME280;2186;49.866;7.986;2024-02-15T11:23:01;100453.13;;;14.97;92.98
4346;BME280;2186;49.866;7.986;2024-02-15T11:25:34;100453.22;;;14.96;92.84
4346;BME280;2186;49.866;7.986;2024-02-15T11:30:49;100432.50;;;14.99;93.90
4346;BME280;2186;49.866;7.986;2024-02-15T11:33:33;100434.09;;;15.03;95.07
4346;BME280;2186;49.866;7.986;2024-02-15T11:36:09;100434.84;;;15.07;94.85
4346;BME280;2186;49.866;7.986;2024-02-15T11:38:41;100425.81;;;15.09;94.64
4346;BME280;2186;49.866;7.986;2024-02-15T11:41:10;100426.56;;;15.32;94.63
4346;BME280;2186;49.866;7.986;2024-02-15T11:46:08;100421.44;;;15.27;93.32
4346;BME280;2186;49.866;7.986;2024-02-15T11:48:36;100417.66;;;15.31;91.72
4346;BME280;2186;49.866;7.986;2024-02-15T11:51:06;100418.34;;;15.36;92.55
4346;BME280;2186;49.866;7.986;2024-02-15T11:53:33;100416.31;;;15.41;91.80
4346;BME280;2186;49.866;7.986;2024-02-15T11:56:00;100409.44;;;15.55;91.76
4346;BME280;2186;49.866;7.986;2024-02-15T11:58:28;100407.72;;;15.73;90.52
4346;BME280;2186;49.866;7.986;2024-02-15T12:01:09;100403.97;;;15.77;89.99
4346;BME280;2186;49.866;7.986;2024-02-15T12:03:54;100388.38;;;15.85;90.07
4346;BME280;2186;49.866;7.986;2024-02-15T12:06:40;100392.22;;;15.79;89.88
4346;BME280;2186;49.866;7.986;2024-02-15T12:09:25;100383.75;;;15.69;90.30
4346;BME280;2186;49.866;7.986;2024-02-15T12:12:10;100380.66;;;15.96;89.80
4346;BME280;2186;49.866;7.986;2024-02-15T12:14:59;100375.84;;;16.03;89.60
4346;BME280;2186;49.866;7.986;2024-02-15T12:17:44;100373.84;;;16.08;89.76
4346;BME280;2186;49.866;7.986;2024-02-15T12:20:30;100376.69;;;16.05;89.29
4346;BME280;2186;49.866;7.986;2024-02-15T12:22:58;100371.06;;;16.09;89.14
4346;BME280;2186;49.866;7.986;2024-02-15T12:25:27;100369.88;;;16.15;89.90
4346;BME280;2186;49.866;7.986;2024-02-15T12:27:55;100364.06;;;16.41;89.41
4346;BME280;2186;49.866;7.986;2024-02-15T12:30:22;100358.38;;;16.30;90.91
4346;BME280;2186;49.866;7.986;2024-02-15T12:32:49;100365.66;;;16.45;90.88
4346;BME280;2186;49.866;7.986;2024-02-15T12:35:21;100362.72;;;16.50;91.25
4346;BME280;2186;49.866;7.986;2024-02-15T12:40:36;100359.09;;;16.51;89.29
4346;BME280;2186;49.866;7.986;2024-02-15T12:43:08;100359.09;;;16.34;87.58
4346;BME280;2186;49.866;7.986;2024-02-15T12:45:36;100353.72;;;16.51;87.87
4346;BME280;2186;49.866;7.986;2024-02-15T12:48:04;100354.38;;;16.39;87.05
4346;BME280;2186;49.866;7.986;2024-02-15T12:50:33;100348.50;;;16.30;87.93
4346;BME280;2186;49.866;7.986;2024-02-15T12:53:02;100341.50;;;16.45;87.02
4346;BME280;2186;49.866;7.986;2024-02-15T12:55:30;100350.19;;;16.50;88.17
4346;BME280;2186;49.866;7.986;2024-02-15T12:58:05;100345.22;;;16.25;89.12
4346;BME280;2186;49.866;7.986;2024-02-15T13:00:36;100345.94;;;16.46;90.84
4346;BME280;2186;49.866;7.986;2024-02-15T13:03:07;100346.31;;;16.21;91.99
4346;BME280;2186;49.866;7.986;2024-02-15T13:05:38;100346.63;;;16.15;92.48
4346;BME280;2186;49.866;7.986;2024-02-15T13:08:05;100348.25;;;16.00;92.73
4346;BME280;2186;49.866;7.986;2024-02-15T13:10:36;100340.41;;;16.32;91.72
4346;BME280;2186;49.866;7.986;2024-02-15T13:13:06;100333.94;;;16.36;91.87
4346;BME280;2186;49.866;7.986;2024-02-15T13:15:32;100332.81;;;16.06;93.34
4346;BME280;2186;49.866;7.986;2024-02-15T13:18:00;100328.16;;;16.26;93.89
4346;BME280;2186;49.866;7.986;2024-02-15T13:20:27;100326.28;;;16.46;93.98
4346;BME280;2186;49.866;7.986;2024-02-15T13:22:59;100333.38;;;16.47;94.18
4346;BME280;2186;49.866;7.986;2024-02-15T13:25:28;100326.13;;;16.32;92.37